sensor_id;sensor_type;location;lat;lon;timestamp;temperature;humidity
23520;DHT22;11936;50.820;4.336;2024-03-02T00:02:13;8.10;99.90
23520;DHT22;11936;50.820;4.336;2024-03-02T00:04:39;8.20;99.90
23520;DHT22;11936;50.820;4.336;2024-03-02T00:07:06;8.10;99.90
23520;DHT22;11936;50.820;4.336;2024-03-02T00:09:33;8.20;99.90
23520;DHT22;11936;50.820;4.336;2024-03-02T00:12:00;8.20;99.90
23520;DHT22;11936;50.820;4.336;2024-03-02T00:14:25;8.30;99.90
23520;DHT22;11936;50.820;4.336;2024-03-02T00:16:55;8.40;99.90
23520;DHT22;11936;50.820;4.336;2024-03-02T00:19:21;8.30;99.90
23520;DHT22;11936;50.820;4.336;2024-03-02T00:21:46;8.30;99.90
23520;DHT22;11936;50.820;4.336;2024-03-02T00:24:21;8.30;99.90
23520;DHT22;11936;50.820;4.336;2024-03-02T00:26:51;8.20;99.90
23520;DHT22;11936;50.820;4.336;2024-03-02T00:29:17;8.30;99.90
23520;DHT22;11936;50.820;4.336;2024-03-02T00:31:44;8.30;99.90
23520;DHT22;11936;50.820;4.336;2024-03-02T00:34:12;8.30;99.90
23520;DHT22;11936;50.820;4.336;2024-03-02T00:36:39;8.10;99.90
23520;DHT22;11936;50.820;4.336;2024-03-02T00:39:04;8.00;99.90
23520;DHT22;11936;50.820;4.336;2024-03-02T00:41:33;8.10;99.90
23520;DHT22;11936;50.820;4.336;2024-03-02T00:46:28;8.30;99.90
23520;DHT22;11936;50.820;4.336;2024-03-02T00:48:57;8.20;99.90
23520;DHT22;11936;50.820;4.336;2024-03-02T00:51:29;8.10;99.90
23520;DHT22;11936;50.820;4.336;2024-03-02T00:54:00;8.00;99.90
23520;DHT22;11936;50.820;4.336;2024-03-02T00:56:29;8.10;99.90
23520;DHT22;11936;50.820;4.336;2024-03-02T00:58:55;8.20;99.90
23520;DHT22;11936;50.820;4.336;2024-03-02T01:01:21;8.20;99.90
23520;DHT22;11936;50.820;4.336;2024-03-02T01:03:47;8.30;99.90
23520;DHT22;11936;50.820;4.336;2024-03-02T01:06:12;8.20;99.90
23520;DHT22;11936;50.820;4.336;2024-03-02T01:08:38;8.00;99.90
23520;DHT22;11936;50.820;4.336;2024-03-02T01:11:04;8.00;99.90
23520;DHT22;11936;50.820;4.336;2024-03-02T01:13:30;8.10;99.90
23520;DHT22;11936;50.820;4.336;2024-03-02T01:15:56;8.10;99.90
23520;DHT22;11936;50.820;4.336;2024-03-02T01:18:22;8.00;99.90
23520;DHT22;11936;50.820;4.336;2024-03-02T01:20:48;7.90;99.90
23520;DHT22;11936;50.820;4.336;2024-03-02T01:23:17;8.10;99.90
23520;DHT22;11936;50.820;4.336;2024-03-02T01:25:43;8.10;99.90
23520;DHT22;11936;50.820;4.336;2024-03-02T01:28:08;8.00;99.90
23520;DHT22;11936;50.820;4.336;2024-03-02T01:30:34;8.20;99.90
23520;DHT22;11936;50.820;4.336;2024-03-02T01:33:00;8.50;99.90
23520;DHT22;11936;50.820;4.336;2024-03-02T01:35:27;8.50;99.90
23520;DHT22;11936;50.820;4.336;2024-03-02T01:37:53;8.40;99.90
23520;DHT22;11936;50.820;4.336;2024-03-02T01:40:19;8.30;99.90
23520;DHT22;11936;50.820;4.336;2024-03-02T01:42:44;8.30;99.90
23520;DHT22;11936;50.820;4.336;2024-03-02T01:45:10;8.20;99.90
23520;DHT22;11936;50.820;4.336;2024-03-02T01:47:36;8.00;99.90
23520;DHT22;11936;50.820;4.336;2024-03-02T01:50:01;8.20;99.90
23520;DHT22;11936;50.820;4.336;2024-03-02T01:52:27;8.10;99.90
23520;DHT22;11936;50.820;4.336;2024-03-02T01:54:53;8.10;99.90
23520;DHT22;11936;50.820;4.336;2024-03-02T01:57:19;8.20;99.90
23520;DHT22;11936;50.820;4.336;2024-03-02T01:59:46;8.30;99.90
23520;DHT22;11936;50.820;4.336;2024-03-02T02:02:14;8.30;99.90
23520;DHT22;11936;50.820;4.336;2024-03-02T02:04:40;8.30;99.90
23520;DHT22;11936;50.820;4.336;2024-03-02T02:07:06;8.20;99.90
23520;DHT22;11936;50.820;4.336;2024-03-02T02:09:32;8.10;99.90
23520;DHT22;11936;50.820;4.336;2024-03-02T02:11:57;8.10;99.90
23520;DHT22;11936;50.820;4.336;2024-03-02T02:14:23;8.30;99.90
23520;DHT22;11936;50.820;4.336;2024-03-02T02:16:49;8.30;99.90
23520;DHT22;11936;50.820;4.336;2024-03-02T02:19:14;8.20;99.90
23520;DHT22;11936;50.820;4.336;2024-03-02T02:21:42;8.20;99.90
23520;DHT22;11936;50.820;4.336;2024-03-02T02:24:08;8.30;99.90
23520;DHT22;11936;50.820;4.336;2024-03-02T02:26:34;8.20;99.90
23520;DHT22;11936;50.820;4.336;2024-03-02T02:28:59;8.30;99.90
23520;DHT22;11936;50.820;4.336;2024-03-02T02:31:25;8.30;99.90
23520;DHT22;11936;50.820;4.336;2024-03-02T02:33:51;8.30;99.90
23520;DHT22;11936;50.820;4.336;2024-03-02T02:36:16;8.30;99.90
23520;DHT22;11936;50.820;4.336;2024-03-02T02:38:45;8.30;99.90
23520;DHT22;11936;50.820;4.336;2024-03-02T02:41:12;8.40;99.90
23520;DHT22;11936;50.820;4.336;2024-03-02T02:43:38;8.50;99.90
23520;DHT22;11936;50.820;4.336;2024-03-02T02:46:05;8.60;99.90
23520;DHT22;11936;50.820;4.336;2024-03-02T02:48:30;8.90;99.90
23520;DHT22;11936;50.820;4.336;2024-03-02T02:50:56;8.90;99.90
23520;DHT22;11936;50.820;4.336;2024-03-02T02:53:22;8.80;99.90
23520;DHT22;11936;50.820;4.336;2024-03-02T02:55:47;8.70;99.90
23520;DHT22;11936;50.820;4.336;2024-03-02T02:58:13;8.60;99.90
23520;DHT22;11936;50.820;4.336;2024-03-02T03:00:40;8.50;99.90
23520;DHT22;11936;50.820;4.336;2024-03-02T03:03:06;8.40;99.90
23520;DHT22;11936;50.820;4.336;2024-03-02T03:05:31;8.40;99.90
23520;DHT22;11936;50.820;4.336;2024-03-02T03:07:57;8.40;99.90
23520;DHT22;11936;50.820;4.336;2024-03-02T03:10:22;8.60;99.90
23520;DHT22;11936;50.820;4.336;2024-03-02T03:12:51;8.50;99.90
23520;DHT22;11936;50.820;4.336;2024-03-02T03:15:17;8.50;99.90
23520;DHT22;11936;50.820;4.336;2024-03-02T03:17:42;8.60;99.90
23520;DHT22;11936;50.820;4.336;2024-03-02T03:20:08;8.50;99.90
23520;DHT22;11936;50.820;4.336;2024-03-02T03:22:40;8.50;99.90
23520;DHT22;11936;50.820;4.336;2024-03-02T03:25:06;8.50;99.90
23520;DHT22;11936;50.820;4.336;2024-03-02T03:27:33;8.40;99.90
23520;DHT22;11936;50.820;4.336;2024-03-02T03:29:59;8.30;99.90
23520;DHT22;11936;50.820;4.336;2024-03-02T03:32:24;8.20;99.90
23520;DHT22;11936;50.820;4.336;2024-03-02T03:34:50;8.30;99.90
23520;DHT22;11936;50.820;4.336;2024-03-02T03:37:16;8.40;99.90
23520;DHT22;11936;50.820;4.336;2024-03-02T03:39:42;8.50;99.90
23520;DHT22;11936;50.820;4.336;2024-03-02T03:42:07;8.40;99.90
23520;DHT22;11936;50.820;4.336;2024-03-02T03:44:33;8.40;99.90
23520;DHT22;11936;50.820;4.336;2024-03-02T03:46:59;8.50;99.90
23520;DHT22;11936;50.820;4.336;2024-03-02T03:49:27;8.60;99.90
23520;DHT22;11936;50.820;4.336;2024-03-02T03:51:52;8.40;99.90
23520;DHT22;11936;50.820;4.336;2024-03-02T03:54:18;8.30;99.90
23520;DHT22;11936;50.820;4.336;2024-03-02T03:56:44;8.20;99.90
23520;DHT22;11936;50.820;4.336;2024-03-02T03:59:09;8.10;99.90
23520;DHT22;11936;50.820;4.336;2024-03-02T04:01:35;8.00;99.90
23520;DHT22;11936;50.820;4.336;2024-03-02T04:04:00;7.90;99.90
23520;DHT22;11936;50.820;4.336;2024-03-02T04:06:29;8.00;99.90
23520;DHT22;11936;50.820;4.336;2024-03-02T04:08:54;8.30;99.90
23520;DHT22;11936;50.820;4.336;2024-03-02T04:11:20;8.40;99.90
23520;DHT22;11936;50.820;4.336;2024-03-02T04:13:46;8.40;99.90
23520;DHT22;11936;50.820;4.336;2024-03-02T04:16:11;8.30;99.90
23520;DHT22;11936;50.820;4.336;2024-03-02T04:18:37;8.40;99.90
23520;DHT22;11936;50.820;4.336;2024-03-02T04:21:05;8.50;99.90
23520;DHT22;11936;50.820;4.336;2024-03-02T04:23:30;8.40;99.90
23520;DHT22;11936;50.820;4.336;2024-03-02T04:25:56;8.40;99.90
23520;DHT22;11936;50.820;4.336;2024-03-02T04:28:21;8.40;99.90
23520;DHT22;11936;50.820;4.336;2024-03-02T04:30:47;8.30;99.90
23520;DHT22;11936;50.820;4.336;2024-03-02T04:33:12;8.30;99.90
23520;DHT22;11936;50.820;4.336;2024-03-02T04:35:38;8.40;99.90
23520;DHT22;11936;50.820;4.336;2024-03-02T04:38:04;8.50;99.90
23520;DHT22;11936;50.820;4.336;2024-03-02T04:40:29;8.30;99.90
23520;DHT22;11936;50.820;4.336;2024-03-02T04:42:55;8.40;99.90
23520;DHT22;11936;50.820;4.336;2024-03-02T04:45:21;8.30;99.90
23520;DHT22;11936;50.820;4.336;2024-03-02T04:47:46;8.20;99.90
23520;DHT22;11936;50.820;4.336;2024-03-02T04:50:12;8.30;99.90
23520;DHT22;11936;50.820;4.336;2024-03-02T04:52:38;8.10;99.90
23520;DHT22;11936;50.820;4.336;2024-03-02T04:55:03;8.20;99.90
23520;DHT22;11936;50.820;4.336;2024-03-02T04:57:42;8.30;99.90
23520;DHT22;11936;50.820;4.336;2024-03-02T05:00:08;8.30;99.90
23520;DHT22;11936;50.820;4.336;2024-03-02T05:02:34;8.20;99.90
23520;DHT22;11936;50.820;4.336;2024-03-02T05:05:00;8.30;99.90
23520;DHT22;11936;50.820;4.336;2024-03-02T05:07:26;8.30;99.90
23520;DHT22;11936;50.820;4.336;2024-03-02T05:09:51;8.40;99.90
23520;DHT22;11936;50.820;4.336;2024-03-02T05:12:17;8.40;99.90
23520;DHT22;11936;50.820;4.336;2024-03-02T05:15:09;8.40;99.90
23520;DHT22;11936;50.820;4.336;2024-03-02T05:17:42;8.20;99.90
23520;DHT22;11936;50.820;4.336;2024-03-02T05:20:10;8.20;99.90
23520;DHT22;11936;50.820;4.336;2024-03-02T05:22:36;8.10;99.90
23520;DHT22;11936;50.820;4.336;2024-03-02T05:25:03;8.20;99.90
23520;DHT22;11936;50.820;4.336;2024-03-02T05:27:29;8.20;99.90
23520;DHT22;11936;50.820;4.336;2024-03-02T05:29:54;8.30;99.90
23520;DHT22;11936;50.820;4.336;2024-03-02T05:32:20;8.20;99.90
23520;DHT22;11936;50.820;4.336;2024-03-02T05:34:45;8.20;99.90
23520;DHT22;11936;50.820;4.336;2024-03-02T05:37:11;8.30;99.90
23520;DHT22;11936;50.820;4.336;2024-03-02T05:39:37;8.40;99.90
23520;DHT22;11936;50.820;4.336;2024-03-02T05:42:03;8.30;99.90
23520;DHT22;11936;50.820;4.336;2024-03-02T05:44:28;8.20;99.90
23520;DHT22;11936;50.820;4.336;2024-03-02T05:46:54;8.00;99.90
23520;DHT22;11936;50.820;4.336;2024-03-02T05:49:20;7.70;99.90
23520;DHT22;11936;50.820;4.336;2024-03-02T05:51:45;7.80;99.90
23520;DHT22;11936;50.820;4.336;2024-03-02T05:54:11;7.90;99.90
23520;DHT22;11936;50.820;4.336;2024-03-02T05:56:37;7.90;99.90
23520;DHT22;11936;50.820;4.336;2024-03-02T05:59:02;8.00;99.90
23520;DHT22;11936;50.820;4.336;2024-03-02T06:01:42;7.70;99.90
23520;DHT22;11936;50.820;4.336;2024-03-02T06:04:08;7.50;99.90
23520;DHT22;11936;50.820;4.336;2024-03-02T06:06:34;7.70;99.90
23520;DHT22;11936;50.820;4.336;2024-03-02T06:09:04;7.70;99.90
23520;DHT22;11936;50.820;4.336;2024-03-02T06:11:36;7.70;99.90
23520;DHT22;11936;50.820;4.336;2024-03-02T06:14:02;7.80;99.90
23520;DHT22;11936;50.820;4.336;2024-03-02T06:16:28;7.70;99.90
23520;DHT22;11936;50.820;4.336;2024-03-02T06:18:53;7.60;99.90
23520;DHT22;11936;50.820;4.336;2024-03-02T06:21:19;7.50;99.90
23520;DHT22;11936;50.820;4.336;2024-03-02T06:23:45;7.80;99.90
23520;DHT22;11936;50.820;4.336;2024-03-02T06:26:11;7.80;99.90
23520;DHT22;11936;50.820;4.336;2024-03-02T06:28:37;7.90;99.90
23520;DHT22;11936;50.820;4.336;2024-03-02T06:31:03;7.50;99.90
23520;DHT22;11936;50.820;4.336;2024-03-02T06:33:29;7.40;99.90
23520;DHT22;11936;50.820;4.336;2024-03-02T06:35:55;7.30;99.90
23520;DHT22;11936;50.820;4.336;2024-03-02T06:38:20;7.40;99.90
23520;DHT22;11936;50.820;4.336;2024-03-02T06:40:46;7.50;99.90
23520;DHT22;11936;50.820;4.336;2024-03-02T06:43:12;7.60;99.90
23520;DHT22;11936;50.820;4.336;2024-03-02T06:45:37;7.70;99.90
23520;DHT22;11936;50.820;4.336;2024-03-02T06:48:03;7.70;99.90
23520;DHT22;11936;50.820;4.336;2024-03-02T06:50:29;7.90;99.90
23520;DHT22;11936;50.820;4.336;2024-03-02T06:52:55;7.90;99.90
23520;DHT22;11936;50.820;4.336;2024-03-02T06:55:21;8.00;99.90
23520;DHT22;11936;50.820;4.336;2024-03-02T06:57:47;7.90;99.90
23520;DHT22;11936;50.820;4.336;2024-03-02T07:00:13;7.90;99.90
23520;DHT22;11936;50.820;4.336;2024-03-02T07:02:39;7.90;99.90
23520;DHT22;11936;50.820;4.336;2024-03-02T07:05:07;7.90;99.90
23520;DHT22;11936;50.820;4.336;2024-03-02T07:07:33;7.90;99.90
23520;DHT22;11936;50.820;4.336;2024-03-02T07:10:00;8.10;99.90
23520;DHT22;11936;50.820;4.336;2024-03-02T07:12:26;7.90;99.90
23520;DHT22;11936;50.820;4.336;2024-03-02T07:14:52;7.90;99.90
23520;DHT22;11936;50.820;4.336;2024-03-02T07:17:32;7.90;99.90
23520;DHT22;11936;50.820;4.336;2024-03-02T07:19:58;7.80;99.90
23520;DHT22;11936;50.820;4.336;2024-03-02T07:22:24;7.80;99.90
23520;DHT22;11936;50.820;4.336;2024-03-02T07:24:50;7.70;99.90
23520;DHT22;11936;50.820;4.336;2024-03-02T07:27:16;7.80;99.90
23520;DHT22;11936;50.820;4.336;2024-03-02T07:29:42;7.80;99.90
23520;DHT22;11936;50.820;4.336;2024-03-02T07:32:08;7.70;99.90
23520;DHT22;11936;50.820;4.336;2024-03-02T07:34:34;7.50;99.90
23520;DHT22;11936;50.820;4.336;2024-03-02T07:37:00;7.60;99.90
23520;DHT22;11936;50.820;4.336;2024-03-02T07:39:26;7.70;99.90
23520;DHT22;11936;50.820;4.336;2024-03-02T07:41:52;7.70;99.90
23520;DHT22;11936;50.820;4.336;2024-03-02T07:44:18;7.70;99.90
23520;DHT22;11936;50.820;4.336;2024-03-02T07:46:45;7.90;99.90
23520;DHT22;11936;50.820;4.336;2024-03-02T07:49:18;7.80;99.90
23520;DHT22;11936;50.820;4.336;2024-03-02T07:51:44;7.70;99.90
23520;DHT22;11936;50.820;4.336;2024-03-02T07:54:09;7.70;99.90
23520;DHT22;11936;50.820;4.336;2024-03-02T07:56:35;7.70;99.90
23520;DHT22;11936;50.820;4.336;2024-03-02T07:59:01;7.70;99.90
23520;DHT22;11936;50.820;4.336;2024-03-02T08:01:31;7.80;99.90
23520;DHT22;11936;50.820;4.336;2024-03-02T08:03:58;7.80;99.90
23520;DHT22;11936;50.820;4.336;2024-03-02T08:06:30;7.80;99.90
23520;DHT22;11936;50.820;4.336;2024-03-02T08:08:57;7.90;99.90
23520;DHT22;11936;50.820;4.336;2024-03-02T08:11:23;8.00;99.90
23520;DHT22;11936;50.820;4.336;2024-03-02T08:13:49;8.10;99.90
23520;DHT22;11936;50.820;4.336;2024-03-02T08:16:16;7.90;99.90
23520;DHT22;11936;50.820;4.336;2024-03-02T08:18:43;8.00;99.90
23520;DHT22;11936;50.820;4.336;2024-03-02T08:21:09;8.20;99.90
23520;DHT22;11936;50.820;4.336;2024-03-02T08:23:35;8.10;99.90
23520;DHT22;11936;50.820;4.336;2024-03-02T08:26:01;8.10;99.90
23520;DHT22;11936;50.820;4.336;2024-03-02T08:28:26;8.20;99.90
23520;DHT22;11936;50.820;4.336;2024-03-02T08:30:52;8.20;99.90
23520;DHT22;11936;50.820;4.336;2024-03-02T08:33:18;8.40;99.90
23520;DHT22;11936;50.820;4.336;2024-03-02T08:35:43;8.30;99.90
23520;DHT22;11936;50.820;4.336;2024-03-02T08:38:09;8.40;99.90
23520;DHT22;11936;50.820;4.336;2024-03-02T08:40:35;8.30;99.90
23520;DHT22;11936;50.820;4.336;2024-03-02T08:43:00;8.30;99.90
23520;DHT22;11936;50.820;4.336;2024-03-02T08:45:26;8.30;99.90
23520;DHT22;11936;50.820;4.336;2024-03-02T08:47:52;8.40;99.90
23520;DHT22;11936;50.820;4.336;2024-03-02T08:50:18;8.40;99.90
23520;DHT22;11936;50.820;4.336;2024-03-02T08:52:43;8.60;99.90
23520;DHT22;11936;50.820;4.336;2024-03-02T08:55:09;8.60;99.90
23520;DHT22;11936;50.820;4.336;2024-03-02T08:57:36;8.60;99.90
23520;DHT22;11936;50.820;4.336;2024-03-02T09:00:02;8.60;99.90
23520;DHT22;11936;50.820;4.336;2024-03-02T09:02:31;8.70;99.90
23520;DHT22;11936;50.820;4.336;2024-03-02T09:04:56;8.80;99.90
23520;DHT22;11936;50.820;4.336;2024-03-02T09:07:22;8.80;99.90
23520;DHT22;11936;50.820;4.336;2024-03-02T09:09:48;8.80;99.90
23520;DHT22;11936;50.820;4.336;2024-03-02T09:12:13;8.80;99.90
23520;DHT22;11936;50.820;4.336;2024-03-02T09:14:40;8.90;99.90
23520;DHT22;11936;50.820;4.336;2024-03-02T09:17:05;8.90;99.90
23520;DHT22;11936;50.820;4.336;2024-03-02T09:19:31;9.10;99.90
23520;DHT22;11936;50.820;4.336;2024-03-02T09:21:57;9.10;99.90
23520;DHT22;11936;50.820;4.336;2024-03-02T09:24:24;9.20;99.90
23520;DHT22;11936;50.820;4.336;2024-03-02T09:26:50;9.20;99.90
23520;DHT22;11936;50.820;4.336;2024-03-02T09:29:15;9.30;99.90
23520;DHT22;11936;50.820;4.336;2024-03-02T09:31:41;9.20;99.90
23520;DHT22;11936;50.820;4.336;2024-03-02T09:34:07;9.20;99.90
23520;DHT22;11936;50.820;4.336;2024-03-02T09:36:33;9.20;99.90
23520;DHT22;11936;50.820;4.336;2024-03-02T09:38:59;9.40;99.90
23520;DHT22;11936;50.820;4.336;2024-03-02T09:41:24;9.50;99.90
23520;DHT22;11936;50.820;4.336;2024-03-02T09:43:50;9.50;99.90
23520;DHT22;11936;50.820;4.336;2024-03-02T09:46:16;9.60;99.90
23520;DHT22;11936;50.820;4.336;2024-03-02T09:48:46;9.80;99.90
23520;DHT22;11936;50.820;4.336;2024-03-02T09:51:12;9.70;99.90
23520;DHT22;11936;50.820;4.336;2024-03-02T09:53:38;9.60;99.90
23520;DHT22;11936;50.820;4.336;2024-03-02T09:56:04;9.50;99.90
23520;DHT22;11936;50.820;4.336;2024-03-02T09:58:30;9.60;99.90
23520;DHT22;11936;50.820;4.336;2024-03-02T10:00:56;9.70;99.90
23520;DHT22;11936;50.820;4.336;2024-03-02T10:03:24;10.00;99.90
23520;DHT22;11936;50.820;4.336;2024-03-02T10:05:50;10.00;99.90
23520;DHT22;11936;50.820;4.336;2024-03-02T10:08:17;10.10;99.90
23520;DHT22;11936;50.820;4.336;2024-03-02T10:10:42;10.20;99.90
23520;DHT22;11936;50.820;4.336;2024-03-02T10:13:10;10.30;99.90
23520;DHT22;11936;50.820;4.336;2024-03-02T10:15:36;10.30;99.90
23520;DHT22;11936;50.820;4.336;2024-03-02T10:18:03;10.40;99.90
23520;DHT22;11936;50.820;4.336;2024-03-02T10:20:29;10.50;99.90
23520;DHT22;11936;50.820;4.336;2024-03-02T10:23:14;10.60;99.90
23520;DHT22;11936;50.820;4.336;2024-03-02T10:25:40;10.50;99.90
23520;DHT22;11936;50.820;4.336;2024-03-02T10:28:06;10.60;99.90
23520;DHT22;11936;50.820;4.336;2024-03-02T10:30:35;10.70;99.90
23520;DHT22;11936;50.820;4.336;2024-03-02T10:33:04;10.70;99.90
23520;DHT22;11936;50.820;4.336;2024-03-02T10:35:31;10.70;99.90
23520;DHT22;11936;50.820;4.336;2024-03-02T10:37:59;10.80;99.90
23520;DHT22;11936;50.820;4.336;2024-03-02T10:40:26;10.80;99.90
23520;DHT22;11936;50.820;4.336;2024-03-02T10:42:52;10.80;99.90
23520;DHT22;11936;50.820;4.336;2024-03-02T10:45:20;10.70;99.90
23520;DHT22;11936;50.820;4.336;2024-03-02T10:47:47;10.90;99.90
23520;DHT22;11936;50.820;4.336;2024-03-02T10:50:13;10.90;99.90
23520;DHT22;11936;50.820;4.336;2024-03-02T10:52:39;10.90;99.90
23520;DHT22;11936;50.820;4.336;2024-03-02T10:55:06;11.00;99.90
23520;DHT22;11936;50.820;4.336;2024-03-02T10:57:51;11.10;99.90
23520;DHT22;11936;50.820;4.336;2024-03-02T11:00:19;11.20;99.90
23520;DHT22;11936;50.820;4.336;2024-03-02T11:02:52;11.30;99.90
23520;DHT22;11936;50.820;4.336;2024-03-02T11:05:29;11.30;99.90
23520;DHT22;11936;50.820;4.336;2024-03-02T11:08:07;11.20;99.90
23520;DHT22;11936;50.820;4.336;2024-03-02T11:10:57;11.30;99.90
23520;DHT22;11936;50.820;4.336;2024-03-02T11:13:33;11.40;99.90
23520;DHT22;11936;50.820;4.336;2024-03-02T11:16:05;11.50;99.90
23520;DHT22;11936;50.820;4.336;2024-03-02T11:18:32;11.50;99.90
23520;DHT22;11936;50.820;4.336;2024-03-02T11:20:59;11.60;99.90
23520;DHT22;11936;50.820;4.336;2024-03-02T11:23:34;11.70;99.90
23520;DHT22;11936;50.820;4.336;2024-03-02T11:26:19;11.70;99.90
23520;DHT22;11936;50.820;4.336;2024-03-02T11:28:45;11.80;99.90
23520;DHT22;11936;50.820;4.336;2024-03-02T11:31:11;11.80;99.90
23520;DHT22;11936;50.820;4.336;2024-03-02T11:33:37;11.80;99.90
23520;DHT22;11936;50.820;4.336;2024-03-02T11:36:06;11.90;99.90
23520;DHT22;11936;50.820;4.336;2024-03-02T11:38:33;12.00;99.90
23520;DHT22;11936;50.820;4.336;2024-03-02T11:41:08;12.10;99.90
23520;DHT22;11936;50.820;4.336;2024-03-02T11:43:37;12.10;99.90
23520;DHT22;11936;50.820;4.336;2024-03-02T11:46:05;12.20;99.90
23520;DHT22;11936;50.820;4.336;2024-03-02T11:48:35;12.30;99.90
23520;DHT22;11936;50.820;4.336;2024-03-02T11:51:02;12.30;99.90
23520;DHT22;11936;50.820;4.336;2024-03-02T11:53:28;12.20;99.90
23520;DHT22;11936;50.820;4.336;2024-03-02T11:55:58;12.20;99.90
23520;DHT22;11936;50.820;4.336;2024-03-02T11:58:23;12.20;99.90
23520;DHT22;11936;50.820;4.336;2024-03-02T12:00:53;12.30;99.90
23520;DHT22;11936;50.820;4.336;2024-03-02T12:03:22;12.20;99.90
23520;DHT22;11936;50.820;4.336;2024-03-02T12:05:54;12.20;99.90
23520;DHT22;11936;50.820;4.336;2024-03-02T12:08:20;12.10;99.90
23520;DHT22;11936;50.820;4.336;2024-03-02T12:10:57;12.00;99.90
23520;DHT22;11936;50.820;4.336;2024-03-02T12:13:23;12.10;99.90
23520;DHT22;11936;50.820;4.336;2024-03-02T12:15:53;12.10;99.90
23520;DHT22;11936;50.820;4.336;2024-03-02T12:18:19;12.10;99.90
23520;DHT22;11936;50.820;4.336;2024-03-02T12:20:45;12.00;99.90
23520;DHT22;11936;50.820;4.336;2024-03-02T12:23:10;12.10;99.90
23520;DHT22;11936;50.820;4.336;2024-03-02T12:25:36;12.20;99.90
23520;DHT22;11936;50.820;4.336;2024-03-02T12:28:02;12.30;99.90
23520;DHT22;11936;50.820;4.336;2024-03-02T12:30:32;12.30;99.90
23520;DHT22;11936;50.820;4.336;2024-03-02T12:33:00;12.30;99.90
23520;DHT22;11936;50.820;4.336;2024-03-02T12:35:26;12.30;99.90
23520;DHT22;11936;50.820;4.336;2024-03-02T12:37:53;12.20;99.90
23520;DHT22;11936;50.820;4.336;2024-03-02T12:40:19;12.10;99.90
23520;DHT22;11936;50.820;4.336;2024-03-02T12:42:46;12.20;99.90
23520;DHT22;11936;50.820;4.336;2024-03-02T12:45:12;12.10;99.90
23520;DHT22;11936;50.820;4.336;2024-03-02T12:47:40;12.30;99.90
23520;DHT22;11936;50.820;4.336;2024-03-02T12:50:06;12.30;99.90
23520;DHT22;11936;50.820;4.336;2024-03-02T12:52:32;12.30;99.90
23520;DHT22;11936;50.820;4.336;2024-03-02T12:55:04;12.50;99.90
23520;DHT22;11936;50.820;4.336;2024-03-02T12:57:33;12.30;99.90
23520;DHT22;11936;50.820;4.336;2024-03-02T12:59:59;12.40;99.90
23520;DHT22;11936;50.820;4.336;2024-03-02T13:02:29;12.50;99.90
23520;DHT22;11936;50.820;4.336;2024-03-02T13:04:55;12.80;99.90
23520;DHT22;11936;50.820;4.336;2024-03-02T13:07:22;12.80;99.90
23520;DHT22;11936;50.820;4.336;2024-03-02T13:09:49;12.70;99.90
23520;DHT22;11936;50.820;4.336;2024-03-02T13:12:16;12.70;99.90
23520;DHT22;11936;50.820;4.336;2024-03-02T13:14:42;12.90;99.90
23520;DHT22;11936;50.820;4.336;2024-03-02T13:17:11;12.70;99.90
23520;DHT22;11936;50.820;4.336;2024-03-02T13:19:56;12.60;99.90
23520;DHT22;11936;50.820;4.336;2024-03-02T13:22:22;12.50;99.90
23520;DHT22;11936;50.820;4.336;2024-03-02T13:24:48;12.60;99.90
23520;DHT22;11936;50.820;4.336;2024-03-02T13:27:14;12.60;99.90
23520;DHT22;11936;50.820;4.336;2024-03-02T13:29:40;12.60;99.90
23520;DHT22;11936;50.820;4.336;2024-03-02T13:32:06;12.60;99.90
23520;DHT22;11936;50.820;4.336;2024-03-02T13:34:31;12.60;99.90
23520;DHT22;11936;50.820;4.336;2024-03-02T13:36:57;12.60;99.90
23520;DHT22;11936;50.820;4.336;2024-03-02T13:39:22;12.70;99.90
23520;DHT22;11936;50.820;4.336;2024-03-02T13:41:48;12.80;99.90
23520;DHT22;11936;50.820;4.336;2024-03-02T13:44:21;12.90;99.90
23520;DHT22;11936;50.820;4.336;2024-03-02T13:46:47;12.80;99.90
23520;DHT22;11936;50.820;4.336;2024-03-02T13:49:13;12.80;99.90
23520;DHT22;11936;50.820;4.336;2024-03-02T13:51:39;12.90;99.90
23520;DHT22;11936;50.820;4.336;2024-03-02T13:54:05;12.80;99.90
23520;DHT22;11936;50.820;4.336;2024-03-02T13:56:31;12.70;99.90
23520;DHT22;11936;50.820;4.336;2024-03-02T13:58:58;12.70;99.90
23520;DHT22;11936;50.820;4.336;2024-03-02T14:01:24;12.70;99.90
23520;DHT22;11936;50.820;4.336;2024-03-02T14:03:50;12.70;99.90
23520;DHT22;11936;50.820;4.336;2024-03-02T14:06:16;12.70;99.90
23520;DHT22;11936;50.820;4.336;2024-03-02T14:08:41;12.80;99.90
23520;DHT22;11936;50.820;4.336;2024-03-02T14:11:10;12.80;99.90
23520;DHT22;11936;50.820;4.336;2024-03-02T14:13:41;12.90;99.90
23520;DHT22;11936;50.820;4.336;2024-03-02T14:16:06;13.00;99.90
23520;DHT22;11936;50.820;4.336;2024-03-02T14:18:32;12.80;99.90
23520;DHT22;11936;50.820;4.336;2024-03-02T14:20:58;12.80;99.90
23520;DHT22;11936;50.820;4.336;2024-03-02T14:23:23;12.80;99.90
23520;DHT22;11936;50.820;4.336;2024-03-02T14:25:51;12.80;99.90
23520;DHT22;11936;50.820;4.336;2024-03-02T14:28:16;12.90;99.90
23520;DHT22;11936;50.820;4.336;2024-03-02T14:30:42;12.70;99.90
23520;DHT22;11936;50.820;4.336;2024-03-02T14:33:08;12.70;99.90
23520;DHT22;11936;50.820;4.336;2024-03-02T14:35:33;12.70;99.90
23520;DHT22;11936;50.820;4.336;2024-03-02T14:37:59;12.80;99.90
23520;DHT22;11936;50.820;4.336;2024-03-02T14:40:25;12.80;99.90
23520;DHT22;11936;50.820;4.336;2024-03-02T14:42:53;12.90;99.90
23520;DHT22;11936;50.820;4.336;2024-03-02T14:45:18;12.80;99.90
23520;DHT22;11936;50.820;4.336;2024-03-02T14:47:44;12.70;99.90
23520;DHT22;11936;50.820;4.336;2024-03-02T14:50:10;12.80;99.90
23520;DHT22;11936;50.820;4.336;2024-03-02T14:52:36;12.80;99.90
23520;DHT22;11936;50.820;4.336;2024-03-02T14:55:02;12.80;99.90
23520;DHT22;11936;50.820;4.336;2024-03-02T14:57:32;12.80;99.90
23520;DHT22;11936;50.820;4.336;2024-03-02T14:59:58;12.90;99.90
23520;DHT22;11936;50.820;4.336;2024-03-02T15:02:23;12.90;99.90
23520;DHT22;11936;50.820;4.336;2024-03-02T15:04:49;12.80;99.90
23520;DHT22;11936;50.820;4.336;2024-03-02T15:07:15;12.80;99.90
23520;DHT22;11936;50.820;4.336;2024-03-02T15:09:41;12.80;99.90
23520;DHT22;11936;50.820;4.336;2024-03-02T15:12:07;12.60;99.90
23520;DHT22;11936;50.820;4.336;2024-03-02T15:14:38;12.40;99.90
23520;DHT22;11936;50.820;4.336;2024-03-02T15:17:04;12.50;99.90
23520;DHT22;11936;50.820;4.336;2024-03-02T15:19:30;12.40;99.90
23520;DHT22;11936;50.820;4.336;2024-03-02T15:21:56;12.30;99.90
23520;DHT22;11936;50.820;4.336;2024-03-02T15:24:21;12.20;99.90
23520;DHT22;11936;50.820;4.336;2024-03-02T15:26:47;12.20;99.90
23520;DHT22;11936;50.820;4.336;2024-03-02T15:29:12;12.20;99.90
23520;DHT22;11936;50.820;4.336;2024-03-02T15:31:38;12.30;99.90
23520;DHT22;11936;50.820;4.336;2024-03-02T15:34:07;12.40;99.90
23520;DHT22;11936;50.820;4.336;2024-03-02T15:36:34;12.60;99.90
23520;DHT22;11936;50.820;4.336;2024-03-02T15:39:00;12.50;99.90
23520;DHT22;11936;50.820;4.336;2024-03-02T15:41:27;12.60;99.90